createdAt,value
2023-03-19T00:02:18.346Z,4.13
2023-03-19T00:05:21.074Z,4.09
2023-03-19T00:08:23.532Z,3.95
2023-03-19T00:11:26.208Z,4.05
2023-03-19T00:14:29.028Z,4.05
2023-03-19T00:17:31.532Z,4.01
2023-03-19T00:20:34.394Z,3.82
2023-03-19T00:23:37.642Z,3.78
2023-03-19T00:26:40.269Z,3.89
2023-03-19T00:29:42.809Z,3.85
2023-03-19T00:32:46.076Z,3.69
2023-03-19T00:35:48.691Z,3.63
2023-03-19T00:38:51.494Z,3.67
2023-03-19T00:41:54.592Z,3.57
2023-03-19T00:44:57.192Z,3.57
2023-03-19T00:48:00.319Z,3.47
2023-03-19T00:51:08.136Z,3.46
2023-03-19T00:54:12.489Z,3.42
2023-03-19T00:57:15.068Z,3.34
2023-03-19T01:00:19.479Z,3.25
2023-03-19T01:03:22.261Z,3.38
2023-03-19T01:06:24.932Z,3.38
2023-03-19T01:09:27.922Z,3.37
2023-03-19T01:12:30.500Z,3.33
2023-03-19T01:15:36.589Z,3.24
2023-03-19T01:18:39.392Z,3.15
2023-03-19T01:21:46.161Z,3.13
2023-03-19T01:24:51.408Z,3.05
2023-03-19T01:27:54.548Z,3.11
2023-03-19T01:31:02.992Z,2.93
2023-03-19T01:34:08.384Z,2.83
2023-03-19T01:37:31.053Z,2.65
2023-03-19T01:40:34.230Z,2.80
2023-03-19T01:43:37.592Z,2.86
2023-03-19T01:46:46.078Z,2.84
2023-03-19T01:49:57.549Z,2.87
2023-03-19T01:53:01.279Z,2.72
2023-03-19T01:56:25.266Z,2.69
2023-03-19T01:59:53.592Z,2.72
2023-03-19T02:03:03.067Z,2.66
2023-03-19T02:06:25.675Z,2.47
2023-03-19T02:09:29.665Z,2.52
2023-03-19T02:12:32.455Z,2.58
2023-03-19T02:15:35.022Z,2.55
2023-03-19T02:18:37.675Z,2.43
2023-03-19T02:21:41.214Z,2.47
2023-03-19T02:24:56.418Z,2.45
2023-03-19T02:28:01.536Z,2.33
2023-03-19T02:31:04.222Z,2.14
2023-03-19T02:34:08.036Z,2.25
2023-03-19T02:37:19.566Z,2.32
2023-03-19T02:40:31.178Z,2.08
2023-03-19T02:43:37.429Z,2.06
2023-03-19T02:46:39.954Z,2.08
2023-03-19T02:49:42.830Z,2.04
2023-03-19T02:52:45.944Z,2.02
2023-03-19T02:55:50.528Z,1.99
2023-03-19T02:58:53.453Z,1.90
2023-03-19T03:01:56.704Z,1.94
2023-03-19T03:04:59.246Z,1.90
2023-03-19T03:08:03.155Z,1.74
2023-03-19T03:11:05.939Z,1.85
2023-03-19T03:14:08.769Z,1.79
2023-03-19T03:17:11.742Z,1.84
2023-03-19T03:20:17.709Z,1.77
2023-03-19T03:23:22.126Z,1.75
2023-03-19T03:26:24.858Z,1.76
2023-03-19T03:29:28.167Z,1.75
2023-03-19T03:32:31.235Z,1.68
2023-03-19T03:35:34.067Z,1.68
2023-03-19T03:38:36.762Z,1.65
2023-03-19T03:41:39.319Z,1.52
2023-03-19T03:44:42.263Z,1.41
2023-03-19T03:47:44.997Z,1.57
2023-03-19T03:50:47.628Z,1.58
2023-03-19T03:53:53.801Z,1.48
2023-03-19T03:56:56.293Z,1.50
2023-03-19T03:59:58.898Z,1.50
2023-03-19T04:03:01.673Z,1.42
2023-03-19T04:06:04.468Z,1.34
2023-03-19T04:09:08.107Z,1.36
2023-03-19T04:12:11.732Z,1.34
2023-03-19T04:15:14.541Z,1.24
2023-03-19T04:18:20.739Z,1.25
2023-03-19T04:21:23.242Z,1.22
2023-03-19T04:24:26.348Z,1.11
2023-03-19T04:27:28.816Z,1.17
2023-03-19T04:30:33.497Z,1.15
2023-03-19T04:33:38.673Z,1.21
2023-03-19T04:36:41.406Z,1.13
2023-03-19T04:39:44.705Z,1.03
2023-03-19T04:42:47.735Z,1.10
2023-03-19T04:46:03.981Z,0.92
2023-03-19T04:49:06.987Z,0.91
2023-03-19T04:52:09.996Z,0.96
2023-03-19T04:55:13.220Z,0.91
2023-03-19T04:58:31.824Z,1.03
2023-03-19T05:01:38.423Z,0.93
2023-03-19T05:04:44.270Z,0.98
2023-03-19T05:07:49.499Z,0.95
2023-03-19T05:10:52.601Z,1.01
2023-03-19T05:13:55.391Z,1.15
2023-03-19T05:16:58.508Z,1.17
2023-03-19T05:20:05.028Z,1.22
2023-03-19T05:23:09.087Z,1.33
2023-03-19T05:26:22.832Z,1.32
2023-03-19T05:29:52.843Z,1.42
2023-03-19T05:33:18.202Z,1.46
2023-03-19T05:36:21.588Z,1.69
2023-03-19T05:39:41.848Z,1.65
2023-03-19T05:42:45.921Z,1.79
2023-03-19T05:45:54.578Z,2.00
2023-03-19T05:49:01.895Z,2.13
2023-03-19T05:52:05.129Z,2.15
2023-03-19T05:55:08.375Z,2.22
2023-03-19T05:58:18.077Z,2.58
2023-03-19T06:01:22.366Z,2.82
2023-03-19T06:04:27.732Z,2.63
2023-03-19T06:07:30.516Z,2.79
2023-03-19T06:10:36.434Z,2.90
2023-03-19T06:13:43.606Z,3.97
2023-03-19T06:16:51.173Z,3.90
2023-03-19T06:19:53.943Z,3.76
2023-03-19T06:22:56.684Z,3.89
2023-03-19T06:25:59.062Z,3.91
2023-03-19T06:29:05.336Z,3.99
2023-03-19T06:32:08.841Z,4.15
2023-03-19T06:35:18.104Z,4.32
2023-03-19T06:38:23.302Z,4.42
2023-03-19T06:41:26.162Z,4.53
2023-03-19T06:44:33.575Z,4.76
2023-03-19T06:47:36.167Z,5.05
2023-03-19T06:50:39.272Z,5.15
2023-03-19T06:53:41.783Z,5.43
2023-03-19T06:56:44.419Z,5.53
2023-03-19T06:59:46.923Z,5.89
2023-03-19T07:02:50.094Z,6.05
2023-03-19T07:05:52.815Z,6.20
2023-03-19T07:08:56.198Z,6.33
2023-03-19T07:11:58.752Z,6.46
2023-03-19T07:15:01.395Z,6.64
2023-03-19T07:18:04.115Z,6.64
2023-03-19T07:21:07.287Z,6.83
2023-03-19T07:24:10.069Z,6.94
2023-03-19T07:27:12.709Z,7.07
2023-03-19T07:30:16.193Z,7.04
2023-03-19T07:33:19.414Z,7.15
2023-03-19T07:36:22.117Z,7.35
2023-03-19T07:39:24.675Z,7.39
2023-03-19T07:42:27.445Z,7.53
2023-03-19T07:45:30.430Z,7.72
2023-03-19T07:48:33.304Z,7.73
2023-03-19T07:51:35.726Z,7.92
2023-03-19T07:54:38.776Z,8.08
2023-03-19T07:57:41.498Z,8.32
2023-03-19T08:00:45.257Z,8.31
2023-03-19T08:03:48.668Z,8.32
2023-03-19T08:06:51.358Z,8.57
2023-03-19T08:09:53.804Z,8.55
2023-03-19T08:12:56.836Z,8.76
2023-03-19T08:15:59.425Z,9.02
2023-03-19T08:19:02.292Z,9.24
2023-03-19T08:22:05.258Z,9.24
2023-03-19T08:25:08.650Z,9.33
2023-03-19T08:28:11.272Z,9.59
2023-03-19T08:31:14.463Z,9.92
2023-03-19T08:34:17.018Z,9.98
2023-03-19T08:37:19.607Z,10.03
2023-03-19T08:40:23.016Z,10.11
2023-03-19T08:43:25.492Z,10.10
2023-03-19T08:46:29.297Z,10.20
2023-03-19T08:49:32.379Z,10.13
2023-03-19T08:52:35.146Z,10.26
2023-03-19T08:55:37.996Z,10.26
2023-03-19T08:58:42.202Z,10.49
2023-03-19T09:01:44.724Z,10.56
2023-03-19T09:04:47.755Z,10.69
2023-03-19T09:07:52.351Z,10.43
2023-03-19T09:10:55.674Z,10.76
2023-03-19T09:13:58.546Z,11.02
2023-03-19T09:17:01.340Z,10.80
2023-03-19T09:20:06.033Z,11.00
2023-03-19T09:23:08.931Z,11.42
2023-03-19T09:26:11.377Z,11.41
2023-03-19T09:29:14.538Z,11.39
2023-03-19T09:32:17.412Z,11.64
2023-03-19T09:35:19.847Z,11.95
2023-03-19T09:38:22.725Z,12.10
2023-03-19T09:41:46.574Z,12.42
2023-03-19T09:44:49.372Z,12.54
2023-03-19T09:47:58.017Z,12.60
2023-03-19T09:51:06.609Z,12.66
2023-03-19T09:54:21.212Z,12.79
2023-03-19T09:57:24.117Z,12.76
2023-03-19T10:00:34.229Z,12.99
2023-03-19T10:03:47.718Z,13.15
2023-03-19T10:06:59.518Z,13.34
2023-03-19T10:10:22.448Z,14.73
2023-03-19T10:13:39.605Z,16.22
2023-03-19T10:16:46.868Z,16.29
2023-03-19T10:20:03.578Z,18.43
2023-03-19T10:23:37.602Z,17.95
2023-03-19T10:26:40.736Z,17.87
2023-03-19T10:29:43.498Z,18.22
2023-03-19T10:32:54.338Z,18.16
2023-03-19T10:36:02.201Z,17.53
2023-03-19T10:39:07.573Z,18.57
2023-03-19T10:42:46.998Z,18.54
2023-03-19T10:45:49.744Z,19.62
2023-03-19T10:48:52.192Z,19.61
2023-03-19T10:51:57.348Z,21.30
2023-03-19T10:55:12.675Z,21.86
2023-03-19T10:58:18.017Z,21.35
2023-03-19T11:01:20.831Z,22.41
2023-03-19T11:04:26.444Z,23.58
2023-03-19T11:07:33.298Z,24.21
2023-03-19T11:10:36.577Z,23.23
2023-03-19T11:13:39.076Z,24.59
2023-03-19T11:16:59.365Z,24.97
2023-03-19T11:20:27.553Z,24.18
2023-03-19T11:23:31.742Z,25.16
2023-03-19T11:26:34.170Z,26.78
2023-03-19T11:29:41.569Z,27.08
2023-03-19T11:33:05.620Z,26.86
2023-03-19T11:36:38.136Z,27.15
2023-03-19T11:39:59.321Z,27.74
2023-03-19T11:43:26.360Z,28.48
2023-03-19T11:46:44.158Z,28.30
2023-03-19T11:50:03.121Z,28.45
2023-03-19T11:53:22.492Z,29.10
2023-03-19T11:56:44.886Z,30.12
2023-03-19T11:59:56.803Z,29.45
2023-03-19T12:03:27.171Z,29.28
2023-03-19T12:06:35.302Z,29.16
2023-03-19T12:09:49.809Z,30.41
2023-03-19T12:13:16.920Z,31.89
2023-03-19T12:16:56.295Z,29.08
2023-03-19T12:20:22.531Z,29.30
2023-03-19T12:23:45.418Z,28.22
2023-03-19T12:26:59.903Z,28.02
2023-03-19T12:30:14.659Z,28.39
2023-03-19T12:33:49.023Z,29.34
2023-03-19T12:37:08.844Z,28.07
2023-03-19T12:40:20.570Z,31.15
2023-03-19T12:43:32.624Z,30.36
2023-03-19T12:46:53.784Z,27.02
2023-03-19T12:49:59.089Z,27.79
2023-03-19T12:53:05.857Z,28.16
2023-03-19T12:56:19.999Z,28.12
2023-03-19T12:59:38.396Z,26.30
2023-03-19T13:02:52.051Z,28.09
2023-03-19T13:06:00.619Z,30.39
2023-03-19T13:09:28.931Z,31.52
2023-03-19T13:12:35.313Z,29.87
2023-03-19T13:15:46.345Z,26.43
2023-03-19T13:19:10.418Z,29.53
2023-03-19T13:22:17.335Z,30.59
2023-03-19T13:25:25.642Z,31.58
2023-03-19T13:28:35.069Z,31.74
2023-03-19T13:31:38.461Z,28.82
2023-03-19T13:34:41.372Z,28.21
2023-03-19T13:37:44.803Z,29.80
2023-03-19T13:40:53.102Z,32.03
2023-03-19T13:43:55.903Z,30.72
2023-03-19T13:47:26.711Z,32.04
2023-03-19T13:50:30.676Z,30.56
2023-03-19T13:53:35.292Z,27.29
2023-03-19T13:57:19.532Z,28.23
2023-03-19T14:00:46.713Z,27.37
2023-03-19T14:03:58.789Z,26.33
2023-03-19T14:07:24.293Z,25.61
2023-03-19T14:10:32.048Z,24.23
2023-03-19T14:13:40.873Z,24.09
2023-03-19T14:16:46.620Z,23.46
2023-03-19T14:19:52.303Z,22.78
2023-03-19T14:23:09.399Z,22.23
2023-03-19T14:26:19.344Z,21.30
2023-03-19T14:29:26.396Z,20.88
2023-03-19T14:32:41.157Z,20.33
2023-03-19T14:35:46.415Z,22.82
2023-03-19T14:38:54.557Z,23.73
2023-03-19T14:42:06.208Z,22.53
2023-03-19T14:45:42.505Z,23.53
2023-03-19T14:49:22.521Z,21.89
2023-03-19T14:52:35.084Z,20.73
2023-03-19T14:55:38.551Z,20.30
2023-03-19T14:58:53.233Z,20.20
2023-03-19T15:01:56.414Z,19.85
2023-03-19T15:05:00.947Z,19.18
2023-03-19T15:08:07.485Z,19.27
2023-03-19T15:11:19.320Z,18.83
2023-03-19T15:14:42.120Z,19.33
2023-03-19T15:17:51.645Z,19.05
2023-03-19T15:21:03.636Z,18.91
2023-03-19T15:24:16.170Z,18.65
2023-03-19T15:27:23.661Z,18.45
2023-03-19T15:30:29.200Z,18.35
2023-03-19T15:33:41.420Z,17.89
2023-03-19T15:36:46.648Z,17.50
2023-03-19T15:39:52.811Z,17.37
2023-03-19T15:42:58.468Z,17.36
2023-03-19T15:46:01.537Z,17.24
2023-03-19T15:49:12.832Z,17.14
2023-03-19T15:52:18.206Z,17.32
2023-03-19T15:55:21.422Z,17.13
2023-03-19T15:58:27.474Z,17.14
2023-03-19T16:01:32.513Z,17.08
2023-03-19T16:04:53.965Z,16.90
2023-03-19T16:08:02.070Z,16.79
2023-03-19T16:11:28.453Z,16.78
2023-03-19T16:14:41.272Z,16.67
2023-03-19T16:17:43.909Z,16.49
2023-03-19T16:21:05.648Z,16.38
2023-03-19T16:24:25.030Z,16.27
2023-03-19T16:27:37.878Z,16.12
2023-03-19T16:30:46.987Z,15.90
2023-03-19T16:33:52.938Z,15.86
2023-03-19T16:36:55.796Z,15.68
2023-03-19T16:40:20.621Z,15.57
2023-03-19T16:43:25.220Z,15.39
2023-03-19T16:46:28.320Z,15.26
2023-03-19T16:49:31.192Z,15.04
2023-03-19T16:52:36.554Z,14.84
2023-03-19T16:55:39.656Z,14.61
2023-03-19T16:58:46.355Z,14.27
2023-03-19T17:01:48.907Z,14.21
2023-03-19T17:04:51.771Z,14.17
2023-03-19T17:07:57.940Z,14.10
2023-03-19T17:11:00.873Z,13.98
2023-03-19T17:14:06.410Z,13.92
2023-03-19T17:17:27.278Z,13.96
2023-03-19T17:20:34.350Z,13.93
2023-03-19T17:23:38.050Z,13.94
2023-03-19T17:26:41.424Z,13.93
2023-03-19T17:29:44.526Z,13.97
2023-03-19T17:32:49.796Z,13.92
2023-03-19T17:35:54.425Z,13.89
2023-03-19T17:38:57.438Z,13.85
2023-03-19T17:42:00.425Z,13.79
2023-03-19T17:45:04.665Z,13.81
2023-03-19T17:48:16.662Z,13.58
2023-03-19T17:51:19.876Z,13.70
2023-03-19T17:54:22.829Z,13.61
2023-03-19T17:57:26.916Z,13.69
2023-03-19T18:00:30.120Z,13.57
2023-03-19T18:03:35.272Z,13.31
2023-03-19T18:06:42.467Z,13.42
2023-03-19T18:09:45.473Z,13.32
2023-03-19T18:12:49.545Z,13.20
2023-03-19T18:15:52.355Z,13.10
2023-03-19T18:18:59.065Z,13.15
2023-03-19T18:22:02.752Z,13.08
2023-03-19T18:25:05.614Z,13.04
2023-03-19T18:28:09.890Z,13.02
2023-03-19T18:31:20.207Z,13.11
2023-03-19T18:34:23.077Z,13.03
2023-03-19T18:37:25.732Z,12.84
2023-03-19T18:40:31.216Z,12.79
2023-03-19T18:43:34.112Z,12.90
2023-03-19T18:46:38.908Z,12.94
2023-03-19T18:49:43.005Z,13.03
2023-03-19T18:52:48.171Z,12.91
2023-03-19T18:55:51.452Z,12.97
2023-03-19T18:58:57.503Z,12.83
2023-03-19T19:02:03.783Z,12.95
2023-03-19T19:05:06.815Z,12.95
2023-03-19T19:08:18.532Z,12.97
2023-03-19T19:11:22.643Z,12.83
2023-03-19T19:14:26.121Z,12.70
2023-03-19T19:17:32.026Z,12.56
2023-03-19T19:20:35.169Z,12.30
2023-03-19T19:23:37.760Z,12.30
2023-03-19T19:26:44.548Z,12.26
2023-03-19T19:29:47.849Z,12.26
2023-03-19T19:32:50.948Z,12.22
2023-03-19T19:35:55.956Z,12.30
2023-03-19T19:39:00.863Z,12.45
2023-03-19T19:42:03.819Z,12.40
2023-03-19T19:45:07.165Z,12.46
2023-03-19T19:48:16.406Z,12.29
2023-03-19T19:51:21.799Z,12.42
2023-03-19T19:54:25.781Z,12.38
2023-03-19T19:57:28.567Z,12.48
2023-03-19T20:00:32.267Z,12.41
2023-03-19T20:03:35.634Z,12.32
2023-03-19T20:06:39.376Z,12.29
2023-03-19T20:09:42.550Z,12.28
2023-03-19T20:12:48.501Z,12.10
2023-03-19T20:15:52.412Z,12.21
2023-03-19T20:18:55.367Z,11.99
2023-03-19T20:21:58.506Z,12.10
2023-03-19T20:25:01.596Z,11.92
2023-03-19T20:28:05.958Z,11.89
2023-03-19T20:31:33.056Z,11.77
2023-03-19T20:34:39.373Z,11.60
2023-03-19T20:37:43.103Z,11.51
2023-03-19T20:40:54.631Z,11.42
2023-03-19T20:44:00.889Z,11.23
2023-03-19T20:47:03.658Z,11.30
2023-03-19T20:50:09.566Z,11.18
2023-03-19T20:53:17.003Z,11.12
2023-03-19T20:56:24.648Z,11.13
2023-03-19T20:59:28.892Z,10.95
2023-03-19T21:02:32.366Z,10.95
2023-03-19T21:05:37.140Z,10.80
2023-03-19T21:08:42.827Z,10.80
2023-03-19T21:11:45.721Z,10.81
2023-03-19T21:14:48.412Z,10.58
2023-03-19T21:17:51.873Z,10.69
2023-03-19T21:20:56.922Z,10.73
2023-03-19T21:24:06.842Z,10.64
2023-03-19T21:27:21.616Z,10.70
2023-03-19T21:30:24.477Z,10.58
2023-03-19T21:33:29.917Z,10.55
2023-03-19T21:36:32.401Z,10.51
2023-03-19T21:39:34.884Z,10.57
2023-03-19T21:42:38.054Z,10.62
2023-03-19T21:45:41.252Z,10.66
2023-03-19T21:48:44.140Z,10.59
2023-03-19T21:51:47.141Z,10.60
2023-03-19T21:54:49.747Z,10.62
2023-03-19T21:57:56.816Z,10.60
2023-03-19T22:01:00.471Z,10.58
2023-03-19T22:04:03.130Z,10.58
2023-03-19T22:07:05.796Z,10.66
2023-03-19T22:10:08.862Z,10.62
2023-03-19T22:13:19.419Z,10.60
2023-03-19T22:16:24.747Z,10.54
2023-03-19T22:19:28.242Z,10.52
2023-03-19T22:22:32.307Z,10.45
2023-03-19T22:25:37.950Z,10.47
2023-03-19T22:28:42.660Z,10.37
2023-03-19T22:31:52.224Z,10.33
2023-03-19T22:34:54.819Z,10.46
2023-03-19T22:37:57.630Z,10.53
2023-03-19T22:41:01.122Z,10.46
2023-03-19T22:44:07.151Z,10.43
2023-03-19T22:47:20.069Z,10.39
2023-03-19T22:50:28.675Z,10.42
2023-03-19T22:53:36.195Z,10.29
2023-03-19T22:56:38.923Z,10.28
2023-03-19T22:59:44.716Z,10.35
2023-03-19T23:02:54.843Z,10.22
2023-03-19T23:06:01.609Z,10.21
2023-03-19T23:09:04.592Z,10.18
2023-03-19T23:15:11.626Z,10.14
2023-03-19T23:18:21.562Z,10.12
2023-03-19T23:21:24.201Z,10.09
2023-03-19T23:24:27.991Z,10.05
2023-03-19T23:27:31.039Z,9.92
2023-03-19T23:30:33.672Z,9.87
2023-03-19T23:33:36.241Z,9.81
2023-03-19T23:36:38.735Z,9.82
2023-03-19T23:39:44.984Z,9.76
2023-03-19T23:42:51.614Z,9.56
2023-03-19T23:45:55.757Z,9.62
2023-03-19T23:48:58.320Z,9.61
2023-03-19T23:52:03.571Z,9.54
2023-03-19T23:55:06.973Z,9.51
2023-03-19T23:58:09.789Z,9.46
